aviador You're here:

KRFD Decoded Metar

ROCKFORD in IL, USA
Report Time2017-11-24 01:54:00
UTC Time2017-11-24 02:11:18
Flight Rules vfr VFR
WindCalm
Visibility9999 m
Phenomena:N/A
Clouds:N/A
Expected CloudBase > 800 ft AGL from Temp-Dew spread
CeilingNone
Temp-2°C (ISA -16)
Dew Point-4°C (86% RH)
AAT-4.5°C
QNH1014 hPa
Density Alt-1,152 ft
Elevation725 ft
Report Wrong Elevation
Raw Report
KRFD 240154Z 00000KT 10SM CLR M02/M04 A2993 RMK AO2 SLP142
T10171039 $=

Extra information for KRFD:More info

Metar Taf Metar & Taf Last 4 Metars F.Rules Stats Wind Profile Meteogram Temp Stats Airport Information Weather charts Add Link Nearby VenuesMetar ALERT Operation Metar Decoded Social comments

AIRNAV info for KRFD